Climatologie pour Saint-Brevin les Pins
Jour • Résumé pour décembre 9, 2017 Système :  Métrique    Anglais   Mixte
« - 1 jour
+ 1 jour »
Jour Semaine Mois Année Personnalisé
  Maximum : Minimum : Moyenne :
Température sous abri : 8.3 °C 1.4 °C 4.9 °C
Point de rosée : 7.8 °C 0.0 °C 3.5 °C
Humidité : 97 % 84 % 91 %
Vitesse du vent : 19.3 km/h 0.0 km/h 4.8 km/h
Rafale : 29.0 km/h - -
Direction :- - SSW
Pression : 1026.0 hPa 1003.9 hPa -
Précipitations : 3.3 mm    
Historical Graphs
 
 
Tableau de données pour décembre 9, 2017
Heure Tempé Pt rosée Pression Vent Vitesse Rafale Humidité Taux pluie (/hr) Soleil
00:00 2.8 °C 1.0 °C 1026.0 hPa NNW 6.4 km/h 12.9 km/h 88 % 0.0 mm 0 W/m2
00:10 2.9 °C 1.0 °C 1026.0 hPa WNW 6.4 km/h 16.1 km/h 87 % 0.0 mm 0 W/m2
00:15 3.0 °C 1.0 °C 1026.0 hPa NNW 4.8 km/h 12.9 km/h 87 % 0.0 mm 0 W/m2
00:20 2.9 °C 1.0 °C 1026.0 hPa WNW 3.2 km/h 12.9 km/h 87 % 0.0 mm 0 W/m2
00:25 2.8 °C 0.9 °C 1026.0 hPa WNW 3.2 km/h 9.7 km/h 87 % 0.0 mm 0 W/m2
00:30 2.8 °C 0.8 °C 1026.0 hPa NNW 4.8 km/h 9.7 km/h 87 % 0.0 mm 0 W/m2
00:35 2.7 °C 0.9 °C 1026.0 hPa NNW 3.2 km/h 8.0 km/h 88 % 0.0 mm 0 W/m2
00:45 2.3 °C 0.5 °C 1026.0 hPa NW 6.4 km/h 6.4 km/h 88 % 0.0 mm 0 W/m2
00:50 2.2 °C 0.4 °C 1026.0 hPa Calm   9.7 km/h 88 % 0.0 mm 0 W/m2
00:55 2.2 °C 0.5 °C 1025.6 hPa Calm   9.7 km/h 89 % 0.0 mm 0 W/m2
01:00 2.0 °C 0.4 °C 1025.6 hPa Calm   8.0 km/h 89 % 0.0 mm 0 W/m2
01:05 1.8 °C 0.3 °C 1025.6 hPa Calm   6.4 km/h 90 % 0.0 mm 0 W/m2
01:15 1.5 °C 0.0 °C 1025.6 hPa Calm   4.8 km/h 90 % 0.0 mm 0 W/m2
01:20 1.6 °C 0.1 °C 1025.6 hPa Calm   6.4 km/h 90 % 0.0 mm 0 W/m2
01:25 1.4 °C 0.1 °C 1025.6 hPa Calm   6.4 km/h 91 % 0.0 mm 0 W/m2
01:30 1.4 °C 0.1 °C 1025.3 hPa WNW 3.2 km/h 4.8 km/h 91 % 0.0 mm 0 W/m2
01:35 1.4 °C 0.1 °C 1025.3 hPa NW 4.8 km/h 9.7 km/h 91 % 0.0 mm 0 W/m2
01:40 1.4 °C 0.1 °C 1025.3 hPa Calm   9.7 km/h 91 % 0.0 mm 0 W/m2
01:45 1.6 °C 0.4 °C 1025.3 hPa Calm   11.3 km/h 92 % 0.0 mm 0 W/m2
01:50 1.5 °C 0.3 °C 1025.3 hPa NNW 4.8 km/h 11.3 km/h 92 % 0.0 mm 0 W/m2
01:55 1.6 °C 0.4 °C 1025.3 hPa NNW 3.2 km/h 11.3 km/h 92 % 0.0 mm 0 W/m2
02:00 1.7 °C 0.6 °C 1025.3 hPa North 4.8 km/h 11.3 km/h 92 % 0.0 mm 0 W/m2
02:05 1.9 °C 0.7 °C 1025.3 hPa NW 1.6 km/h 11.3 km/h 92 % 0.0 mm 0 W/m2
02:10 2.0 °C 0.8 °C 1025.3 hPa NW 1.6 km/h 12.9 km/h 92 % 0.0 mm 0 W/m2
02:15 2.3 °C 1.1 °C 1025.3 hPa NW 1.6 km/h 12.9 km/h 92 % 0.0 mm 0 W/m2
02:20 2.5 °C 1.3 °C 1024.9 hPa WNW 4.8 km/h 11.3 km/h 92 % 0.0 mm 0 W/m2
02:25 2.7 °C 1.5 °C 1024.9 hPa WNW 3.2 km/h 11.3 km/h 92 % 0.0 mm 0 W/m2
02:30 2.9 °C 1.6 °C 1024.9 hPa NW 6.4 km/h 11.3 km/h 91 % 0.0 mm 0 W/m2
02:40 3.2 °C 1.7 °C 1024.9 hPa NW 9.7 km/h 16.1 km/h 90 % 0.0 mm 0 W/m2
02:45 3.6 °C 2.1 °C 1024.9 hPa NW 6.4 km/h 11.3 km/h 90 % 0.0 mm 0 W/m2
02:50 3.9 °C 2.3 °C 1024.9 hPa WNW 8.0 km/h 14.5 km/h 89 % 0.0 mm 0 W/m2
03:00 4.6 °C 2.5 °C 1024.9 hPa WNW 11.3 km/h 16.1 km/h 86 % 0.0 mm 0 W/m2
03:05 4.7 °C 2.4 °C 1024.9 hPa NW 4.8 km/h 16.1 km/h 85 % 0.0 mm 0 W/m2
03:10 4.7 °C 2.4 °C 1024.9 hPa NW 8.0 km/h 16.1 km/h 85 % 0.0 mm 0 W/m2
03:15 4.8 °C 2.3 °C 1024.9 hPa West 9.7 km/h 16.1 km/h 84 % 0.0 mm 0 W/m2
03:20 4.6 °C 2.1 °C 1024.9 hPa NW 12.9 km/h 14.5 km/h 84 % 0.0 mm 0 W/m2
03:25 4.4 °C 2.0 °C 1024.9 hPa WNW 4.8 km/h 19.3 km/h 84 % 0.0 mm 0 W/m2
03:30 4.3 °C 2.0 °C 1024.9 hPa WNW 4.8 km/h 19.3 km/h 85 % 0.0 mm 0 W/m2
03:35 4.6 °C 2.1 °C 1024.6 hPa WNW 8.0 km/h 14.5 km/h 84 % 0.0 mm 0 W/m2
03:40 4.7 °C 2.2 °C 1024.6 hPa NW 1.6 km/h 14.5 km/h 84 % 0.0 mm 0 W/m2
03:45 4.6 °C 2.1 °C 1024.6 hPa NW 1.6 km/h 12.9 km/h 84 % 0.0 mm 0 W/m2
03:50 4.4 °C 2.0 °C 1024.6 hPa NNW 14.5 km/h 14.5 km/h 84 % 0.0 mm 0 W/m2
04:00 4.3 °C 2.0 °C 1024.6 hPa WNW 4.8 km/h 14.5 km/h 85 % 0.0 mm 0 W/m2
04:05 4.4 °C 2.1 °C 1024.6 hPa NW 3.2 km/h 14.5 km/h 85 % 0.0 mm 0 W/m2
04:20 4.1 °C 2.1 °C 1024.6 hPa WNW 3.2 km/h 16.1 km/h 87 % 0.0 mm 0 W/m2
04:25 4.1 °C 1.9 °C 1024.6 hPa WNW 8.0 km/h 9.7 km/h 86 % 0.0 mm 0 W/m2
04:30 4.1 °C 1.9 °C 1024.6 hPa WNW 4.8 km/h 11.3 km/h 86 % 0.0 mm 0 W/m2
04:35 4.1 °C 2.1 °C 1024.6 hPa NW 4.8 km/h 11.3 km/h 87 % 0.0 mm 0 W/m2
04:45 4.3 °C 2.4 °C 1024.3 hPa WNW 4.8 km/h 12.9 km/h 87 % 0.0 mm 0 W/m2
04:50 4.4 °C 2.3 °C 1024.3 hPa WNW 3.2 km/h 14.5 km/h 86 % 0.0 mm 0 W/m2
04:55 4.5 °C 2.4 °C 1024.3 hPa WNW 11.3 km/h 14.5 km/h 86 % 0.0 mm 0 W/m2
05:00 4.5 °C 2.4 °C 1024.3 hPa WNW 6.4 km/h 14.5 km/h 86 % 0.0 mm 0 W/m2
05:05 4.5 °C 2.4 °C 1024.3 hPa NW 1.6 km/h 14.5 km/h 86 % 0.0 mm 0 W/m2
05:15 4.1 °C 2.1 °C 1024.3 hPa NW 1.6 km/h 11.3 km/h 87 % 0.0 mm 0 W/m2
05:20 3.8 °C 1.8 °C 1024.3 hPa Calm   8.0 km/h 87 % 0.0 mm 0 W/m2
05:25 3.8 °C 2.0 °C 1024.3 hPa NW 3.2 km/h 9.7 km/h 88 % 0.0 mm 0 W/m2
05:30 4.0 °C 2.4 °C 1024.3 hPa NW 4.8 km/h 9.7 km/h 89 % 0.0 mm 0 W/m2
05:35 4.3 °C 2.6 °C 1024.3 hPa NW 4.8 km/h 9.7 km/h 89 % 0.0 mm 0 W/m2
05:40 4.4 °C 2.6 °C 1024.3 hPa WNW 3.2 km/h 9.7 km/h 88 % 0.0 mm 0 W/m2
06:00 4.7 °C 2.7 °C 1024.3 hPa WNW 3.2 km/h 8.0 km/h 87 % 0.0 mm 0 W/m2
06:05 4.6 °C 2.6 °C 1024.3 hPa NW 4.8 km/h 9.7 km/h 87 % 0.0 mm 0 W/m2
06:10 4.4 °C 2.5 °C 1023.9 hPa WNW 3.2 km/h 9.7 km/h 87 % 0.0 mm 0 W/m2
06:15 4.4 °C 2.5 °C 1023.9 hPa WNW 6.4 km/h 11.3 km/h 87 % 0.0 mm 0 W/m2
06:25 4.2 °C 2.4 °C 1023.9 hPa WNW 4.8 km/h 9.7 km/h 88 % 0.0 mm 0 W/m2
06:30 4.2 °C 2.4 °C 1023.6 hPa WNW 6.4 km/h 9.7 km/h 88 % 0.0 mm 0 W/m2
06:45 4.2 °C 2.4 °C 1023.6 hPa Calm   16.1 km/h 88 % 0.0 mm 0 W/m2
06:55 4.2 °C 2.2 °C 1023.6 hPa NW 8.0 km/h 11.3 km/h 87 % 0.0 mm 0 W/m2
07:00 4.3 °C 2.5 °C 1023.6 hPa NW 6.4 km/h 14.5 km/h 88 % 0.0 mm 0 W/m2
07:05 4.3 °C 2.5 °C 1023.6 hPa NW 4.8 km/h 14.5 km/h 88 % 0.0 mm 0 W/m2
07:10 4.4 °C 2.6 °C 1023.6 hPa NNW 6.4 km/h 14.5 km/h 88 % 0.0 mm 0 W/m2
07:15 4.5 °C 2.5 °C 1023.6 hPa Calm   14.5 km/h 87 % 0.0 mm 0 W/m2
07:20 4.4 °C 2.6 °C 1023.6 hPa WNW 4.8 km/h 12.9 km/h 88 % 0.0 mm 0 W/m2
07:25 4.3 °C 2.5 °C 1023.6 hPa WNW 3.2 km/h 12.9 km/h 88 % 0.0 mm 0 W/m2
07:35 4.2 °C 2.6 °C 1023.9 hPa WNW 3.2 km/h 11.3 km/h 89 % 0.0 mm 0 W/m2
07:45 4.0 °C 2.4 °C 1023.9 hPa WNW 6.4 km/h 8.0 km/h 89 % 0.0 mm 0 W/m2
07:50 3.8 °C 2.2 °C 1023.9 hPa WNW 1.6 km/h 8.0 km/h 89 % 0.0 mm 0 W/m2
07:55 3.6 °C 2.1 °C 1023.9 hPa NNW 9.7 km/h 9.7 km/h 90 % 0.0 mm 0 W/m2
08:05 3.7 °C 2.2 °C 1023.9 hPa Calm   9.7 km/h 90 % 0.0 mm 0 W/m2
08:20 3.3 °C 2.0 °C 1023.9 hPa NW 1.6 km/h 6.4 km/h 91 % 0.0 mm 0 W/m2
08:25 3.2 °C 1.8 °C 1023.6 hPa Calm   4.8 km/h 91 % 0.0 mm 0 W/m2
08:40 2.8 °C 1.7 °C 1023.6 hPa NW 3.2 km/h 6.4 km/h 92 % 0.0 mm 5 W/m2
08:45 2.8 °C 1.7 °C 1023.6 hPa Calm   6.4 km/h 92 % 0.0 mm 5 W/m2
08:50 2.8 °C 1.8 °C 1023.6 hPa Calm   4.8 km/h 93 % 0.0 mm 7 W/m2
08:55 2.8 °C 1.8 °C 1023.6 hPa Calm   3.2 km/h 93 % 0.0 mm 11 W/m2
09:00 2.8 °C 1.8 °C 1023.6 hPa Calm   1.6 km/h 93 % 0.0 mm 14 W/m2
09:10 2.7 °C 1.6 °C 1023.6 hPa Calm   1.6 km/h 93 % 0.0 mm 23 W/m2
09:15 2.9 °C 1.9 °C 1023.6 hPa Calm   6.4 km/h 93 % 0.0 mm 26 W/m2
09:20 3.3 °C 2.4 °C 1023.2 hPa Calm   6.4 km/h 94 % 0.0 mm 30 W/m2
09:30 3.2 °C 2.2 °C 1023.6 hPa Calm   8.0 km/h 93 % 0.0 mm 39 W/m2
09:40 3.1 °C 1.9 °C 1023.6 hPa Calm   6.4 km/h 92 % 0.0 mm 51 W/m2
09:45 3.0 °C 1.8 °C 1023.6 hPa ESE 3.2 km/h 4.8 km/h 92 % 0.0 mm 54 W/m2
09:50 2.9 °C 1.8 °C 1023.6 hPa ESE 1.6 km/h 4.8 km/h 92 % 0.0 mm 60 W/m2
09:55 2.9 °C 1.8 °C 1023.6 hPa Calm   4.8 km/h 92 % 0.0 mm 65 W/m2
10:00 3.0 °C 1.8 °C 1023.6 hPa Calm   4.8 km/h 92 % 0.0 mm 76 W/m2
10:05 3.1 °C 1.9 °C 1023.2 hPa Calm   3.2 km/h 92 % 0.0 mm 81 W/m2
10:10 3.1 °C 1.9 °C 1023.2 hPa Calm   3.2 km/h 92 % 0.0 mm 83 W/m2
10:20 3.2 °C 2.0 °C 1023.2 hPa Calm   6.4 km/h 92 % 0.0 mm 90 W/m2
10:25 3.3 °C 2.0 °C 1023.2 hPa ESE 3.2 km/h 6.4 km/h 91 % 0.0 mm 93 W/m2
10:30 3.3 °C 1.9 °C 1023.2 hPa SE 3.2 km/h 6.4 km/h 91 % 0.0 mm 98 W/m2
10:35 3.3 °C 1.9 °C 1022.9 hPa SE 6.4 km/h 6.4 km/h 91 % 0.0 mm 105 W/m2
10:40 3.3 °C 1.9 °C 1022.9 hPa Calm   6.4 km/h 91 % 0.0 mm 111 W/m2
10:45 3.3 °C 2.0 °C 1023.2 hPa SE 1.6 km/h 6.4 km/h 91 % 0.0 mm 116 W/m2
10:50 3.4 °C 2.1 °C 1023.2 hPa SE 4.8 km/h 4.8 km/h 91 % 0.0 mm 109 W/m2
11:05 3.8 °C 2.3 °C 1023.2 hPa Calm   8.0 km/h 90 % 0.0 mm 127 W/m2
11:10 4.1 °C 2.6 °C 1023.2 hPa ESE 1.6 km/h 8.0 km/h 90 % 0.0 mm 139 W/m2
11:15 4.2 °C 2.5 °C 1023.2 hPa SSE 4.8 km/h 8.0 km/h 89 % 0.0 mm 130 W/m2
11:30 4.4 °C 2.8 °C 1022.9 hPa Calm   4.8 km/h 89 % 0.0 mm 174 W/m2
11:35 4.7 °C 3.1 °C 1022.9 hPa SE 4.8 km/h 8.0 km/h 89 % 0.0 mm 218 W/m2
11:40 4.9 °C 3.1 °C 1022.9 hPa SE 6.4 km/h 8.0 km/h 88 % 0.0 mm 183 W/m2
11:45 4.9 °C 3.0 °C 1022.9 hPa Calm   8.0 km/h 87 % 0.0 mm 163 W/m2
11:50 5.1 °C 3.1 °C 1022.6 hPa ESE 6.4 km/h 6.4 km/h 87 % 0.0 mm 148 W/m2
11:55 5.2 °C 3.2 °C 1022.6 hPa SE 3.2 km/h 6.4 km/h 87 % 0.0 mm 141 W/m2
12:00 5.2 °C 3.2 °C 1022.6 hPa SE 4.8 km/h 8.0 km/h 87 % 0.0 mm 130 W/m2
12:05 5.3 °C 3.5 °C 1022.2 hPa Calm   8.0 km/h 88 % 0.0 mm 141 W/m2
12:10 5.3 °C 3.5 °C 1022.2 hPa SE 6.4 km/h 9.7 km/h 88 % 0.0 mm 130 W/m2
12:20 5.3 °C 3.7 °C 1021.9 hPa Calm   11.3 km/h 89 % 0.0 mm 132 W/m2
12:25 5.3 °C 3.5 °C 1021.9 hPa SSE 6.4 km/h 9.7 km/h 88 % 0.0 mm 137 W/m2
12:40 5.4 °C 3.4 °C 1021.6 hPa ESE 3.2 km/h 11.3 km/h 87 % 0.0 mm 121 W/m2
12:45 5.4 °C 3.4 °C 1021.6 hPa SE 4.8 km/h 9.7 km/h 87 % 0.0 mm 137 W/m2
12:55 5.4 °C 3.4 °C 1021.2 hPa South 6.4 km/h 9.7 km/h 87 % 0.0 mm 109 W/m2
13:00 5.4 °C 3.5 °C 1021.2 hPa South 3.2 km/h 9.7 km/h 87 % 0.0 mm 111 W/m2
13:05 5.5 °C 3.5 °C 1021.2 hPa SSE 6.4 km/h 9.7 km/h 87 % 0.0 mm 104 W/m2
13:10 5.7 °C 3.7 °C 1020.9 hPa SSE 3.2 km/h 9.7 km/h 87 % 0.0 mm 134 W/m2
13:15 5.9 °C 3.9 °C 1020.9 hPa SSE 4.8 km/h 11.3 km/h 87 % 0.0 mm 179 W/m2
13:20 6.1 °C 3.9 °C 1020.9 hPa South 8.0 km/h 11.3 km/h 86 % 0.0 mm 151 W/m2
13:25 6.1 °C 3.8 °C 1020.9 hPa SSE 6.4 km/h 11.3 km/h 85 % 0.0 mm 121 W/m2
13:30 6.2 °C 3.9 °C 1020.9 hPa SE 1.6 km/h 9.7 km/h 85 % 0.0 mm 113 W/m2
13:40 6.5 °C 4.2 °C 1020.5 hPa SE 3.2 km/h 8.0 km/h 85 % 0.0 mm 137 W/m2
13:45 6.6 °C 4.3 °C 1020.2 hPa SSE 3.2 km/h 12.9 km/h 85 % 0.0 mm 120 W/m2
13:50 6.6 °C 4.0 °C 1020.2 hPa SSE 6.4 km/h 12.9 km/h 84 % 0.0 mm 76 W/m2
14:00 6.5 °C 4.2 °C 1019.9 hPa SSE 8.0 km/h 11.3 km/h 85 % 0.3 mm 53 W/m2
14:05 6.4 °C 4.4 °C 1019.9 hPa South 1.6 km/h 11.3 km/h 87 % 0.3 mm 72 W/m2
14:20 6.4 °C 4.9 °C 1019.5 hPa SE 4.8 km/h 6.4 km/h 90 % 0.3 mm 93 W/m2
14:25 6.4 °C 4.9 °C 1019.2 hPa SE 6.4 km/h 8.0 km/h 90 % 0.3 mm 93 W/m2
14:30 6.4 °C 4.9 °C 1019.2 hPa Calm   8.0 km/h 90 % 0.3 mm 88 W/m2
14:35 6.4 °C 4.9 °C 1019.2 hPa SE 4.8 km/h 6.4 km/h 90 % 0.3 mm 81 W/m2
14:45 6.5 °C 5.0 °C 1018.8 hPa Calm   8.0 km/h 90 % 0.3 mm 69 W/m2
14:50 6.5 °C 5.0 °C 1018.8 hPa SSE 3.2 km/h 8.0 km/h 90 % 0.3 mm 65 W/m2
14:55 6.5 °C 5.0 °C 1018.5 hPa South 3.2 km/h 8.0 km/h 90 % 0.5 mm 60 W/m2
15:00 6.6 °C 5.0 °C 1018.5 hPa Calm   8.0 km/h 90 % 0.3 mm 44 W/m2
15:10 6.6 °C 5.0 °C 1018.2 hPa SSE 3.2 km/h 9.7 km/h 90 % 0.3 mm 40 W/m2
15:15 6.6 °C 5.0 °C 1017.8 hPa SSE 6.4 km/h 9.7 km/h 90 % 0.3 mm 47 W/m2
15:20 6.6 °C 5.0 °C 1017.8 hPa SSE 3.2 km/h 12.9 km/h 90 % 0.3 mm 54 W/m2
15:25 6.6 °C 5.1 °C 1017.5 hPa SSE 3.2 km/h 12.9 km/h 90 % 0.3 mm 54 W/m2
15:30 6.7 °C 5.1 °C 1017.5 hPa SSE 3.2 km/h 9.7 km/h 90 % 0.3 mm 40 W/m2
15:40 6.7 °C 5.1 °C 1017.5 hPa SSE 3.2 km/h 6.4 km/h 90 % 0.3 mm 39 W/m2
15:45 6.7 °C 5.1 °C 1017.2 hPa SSE 3.2 km/h 8.0 km/h 90 % 0.3 mm 37 W/m2
15:55 6.8 °C 5.3 °C 1017.2 hPa SSE 1.6 km/h 6.4 km/h 90 % 0.0 mm 23 W/m2
16:10 6.8 °C 5.3 °C 1016.8 hPa SSE 3.2 km/h 8.0 km/h 90 % 0.0 mm 21 W/m2
16:15 6.8 °C 5.3 °C 1016.8 hPa SSE 3.2 km/h 8.0 km/h 90 % 0.0 mm 19 W/m2
16:20 6.8 °C 5.4 °C 1016.5 hPa South 3.2 km/h 9.7 km/h 91 % 0.0 mm 21 W/m2
16:30 6.8 °C 5.5 °C 1016.5 hPa SSW 8.0 km/h 12.9 km/h 91 % 0.3 mm 21 W/m2
16:35 6.8 °C 5.3 °C 1016.5 hPa SSW 8.0 km/h 12.9 km/h 90 % 0.3 mm 16 W/m2
16:40 6.8 °C 5.3 °C 1016.1 hPa SSW 8.0 km/h 11.3 km/h 90 % 0.3 mm 14 W/m2
16:45 6.8 °C 5.4 °C 1016.1 hPa South 4.8 km/h 11.3 km/h 91 % 0.3 mm 12 W/m2
16:50 6.7 °C 5.4 °C 1015.8 hPa South 4.8 km/h 11.3 km/h 91 % 0.3 mm 9 W/m2
16:55 6.7 °C 5.3 °C 1015.8 hPa South 6.4 km/h 11.3 km/h 91 % 0.3 mm 5 W/m2
17:00 6.6 °C 5.2 °C 1015.8 hPa South 4.8 km/h 11.3 km/h 91 % 0.3 mm 0 W/m2
17:05 6.6 °C 5.2 °C 1015.8 hPa SSE 1.6 km/h 8.0 km/h 91 % 0.3 mm 0 W/m2
17:10 6.6 °C 5.2 °C 1015.8 hPa SE 6.4 km/h 8.0 km/h 91 % 0.3 mm 0 W/m2
17:20 6.5 °C 5.3 °C 1015.5 hPa SE 4.8 km/h 8.0 km/h 92 % 0.3 mm 0 W/m2
17:25 6.4 °C 5.2 °C 1015.5 hPa SE 4.8 km/h 6.4 km/h 92 % 0.5 mm 0 W/m2
17:30 6.3 °C 5.1 °C 1015.1 hPa SE 1.6 km/h 6.4 km/h 92 % 0.3 mm 0 W/m2
17:45 6.2 °C 5.1 °C 1014.8 hPa Calm   8.0 km/h 93 % 0.3 mm 0 W/m2
17:50 6.1 °C 5.1 °C 1014.4 hPa SSE 3.2 km/h 8.0 km/h 93 % 0.3 mm 0 W/m2
17:55 6.1 °C 5.0 °C 1014.4 hPa SSE 1.6 km/h 8.0 km/h 93 % 0.3 mm 0 W/m2
18:20 6.0 °C 5.1 °C 1013.8 hPa SSE 3.2 km/h 12.9 km/h 94 % 0.3 mm 0 W/m2
18:30 5.9 °C 5.1 °C 1013.8 hPa SSE 4.8 km/h 8.0 km/h 94 % 0.0 mm 0 W/m2
18:35 5.9 °C 5.1 °C 1013.4 hPa SSE 4.8 km/h 8.0 km/h 94 % 0.0 mm 0 W/m2
18:45 5.9 °C 4.8 °C 1013.8 hPa SSE 4.8 km/h 11.3 km/h 93 % 0.3 mm 0 W/m2
18:50 5.9 °C 4.8 °C 1013.4 hPa SSE 8.0 km/h 9.7 km/h 93 % 0.3 mm 0 W/m2
18:55 5.9 °C 5.1 °C 1013.4 hPa SSE 8.0 km/h 9.7 km/h 94 % 0.3 mm 0 W/m2
19:00 5.9 °C 4.9 °C 1013.1 hPa SSE 4.8 km/h 12.9 km/h 93 % 0.3 mm 0 W/m2
19:10 6.0 °C 5.1 °C 1013.1 hPa SSE 3.2 km/h 11.3 km/h 94 % 0.3 mm 0 W/m2
19:15 5.9 °C 5.1 °C 1013.1 hPa SSE 3.2 km/h 11.3 km/h 94 % 0.5 mm 0 W/m2
19:20 6.0 °C 5.1 °C 1012.8 hPa SSE 8.0 km/h 12.9 km/h 94 % 0.5 mm 0 W/m2
19:25 5.9 °C 5.1 °C 1012.8 hPa SSE 4.8 km/h 12.9 km/h 94 % 0.5 mm 0 W/m2
19:30 5.9 °C 5.1 °C 1012.8 hPa South 4.8 km/h 12.9 km/h 94 % 0.5 mm 0 W/m2
19:35 5.9 °C 5.1 °C 1012.4 hPa SSE 6.4 km/h 11.3 km/h 94 % 0.5 mm 0 W/m2
19:40 5.9 °C 5.2 °C 1012.4 hPa SSE 3.2 km/h 11.3 km/h 95 % 0.5 mm 0 W/m2
19:45 5.9 °C 5.2 °C 1012.1 hPa SE 8.0 km/h 12.9 km/h 95 % 0.5 mm 0 W/m2
19:50 5.9 °C 5.1 °C 1012.1 hPa SSE 4.8 km/h 12.9 km/h 95 % 0.5 mm 0 W/m2
20:05 5.9 °C 5.1 °C 1011.7 hPa SE 9.7 km/h 14.5 km/h 95 % 0.8 mm 0 W/m2
20:10 5.9 °C 5.1 °C 1011.4 hPa South 8.0 km/h 14.5 km/h 95 % 0.8 mm 0 W/m2
20:15 5.9 °C 5.1 °C 1011.4 hPa ESE 4.8 km/h 17.7 km/h 95 % 0.5 mm 0 W/m2
20:25 5.9 °C 5.3 °C 1010.7 hPa SSE 4.8 km/h 14.5 km/h 96 % 0.5 mm 0 W/m2
20:30 5.9 °C 5.3 °C 1010.7 hPa SSE 8.0 km/h 14.5 km/h 96 % 0.5 mm 0 W/m2
20:40 5.9 °C 5.4 °C 1010.4 hPa SSE 9.7 km/h 16.1 km/h 96 % 0.5 mm 0 W/m2
20:45 6.0 °C 5.4 °C 1010.4 hPa SSE 6.4 km/h 16.1 km/h 96 % 0.5 mm 0 W/m2
21:00 6.1 °C 5.5 °C 1010.0 hPa SE 12.9 km/h 19.3 km/h 96 % 0.5 mm 0 W/m2
21:05 6.2 °C 5.6 °C 1009.7 hPa SSE 4.8 km/h 17.7 km/h 96 % 0.5 mm 0 W/m2
21:10 6.2 °C 5.6 °C 1009.7 hPa SSE 8.0 km/h 17.7 km/h 96 % 0.5 mm 0 W/m2
21:20 6.3 °C 5.7 °C 1009.7 hPa SE 9.7 km/h 19.3 km/h 96 % 0.5 mm 0 W/m2
21:25 6.4 °C 5.8 °C 1009.4 hPa SSE 12.9 km/h 20.9 km/h 96 % 0.5 mm 0 W/m2
21:35 6.3 °C 5.7 °C 1009.0 hPa South 6.4 km/h 19.3 km/h 96 % 0.3 mm 0 W/m2
21:45 6.4 °C 5.9 °C 1008.4 hPa SE 9.7 km/h 22.5 km/h 97 % 0.3 mm 0 W/m2
21:50 6.4 °C 5.9 °C 1008.4 hPa SSE 11.3 km/h 22.5 km/h 97 % 0.3 mm 0 W/m2
22:05 6.7 °C 6.2 °C 1007.7 hPa South 6.4 km/h 22.5 km/h 97 % 0.0 mm 0 W/m2
22:10 6.7 °C 6.3 °C 1007.7 hPa South 9.7 km/h 22.5 km/h 97 % 0.0 mm 0 W/m2
22:20 6.8 °C 6.4 °C 1007.3 hPa SSE 4.8 km/h 22.5 km/h 97 % 0.3 mm 0 W/m2
22:25 6.9 °C 6.4 °C 1007.0 hPa South 6.4 km/h 22.5 km/h 97 % 0.3 mm 0 W/m2
22:30 7.0 °C 6.6 °C 1006.7 hPa South 8.0 km/h 24.1 km/h 97 % 0.3 mm 0 W/m2
22:35 7.1 °C 6.7 °C 1006.7 hPa SSE 9.7 km/h 24.1 km/h 97 % 0.3 mm 0 W/m2
22:40 7.2 °C 6.7 °C 1006.7 hPa SE 16.1 km/h 22.5 km/h 97 % 0.3 mm 0 W/m2
22:45 7.3 °C 6.8 °C 1006.7 hPa South 19.3 km/h 24.1 km/h 97 % 0.3 mm 0 W/m2
22:50 7.4 °C 6.9 °C 1006.3 hPa SSW 9.7 km/h 24.1 km/h 97 % 0.3 mm 0 W/m2
22:55 7.4 °C 7.0 °C 1006.3 hPa South 12.9 km/h 24.1 km/h 97 % 0.5 mm 0 W/m2
23:00 7.6 °C 7.1 °C 1006.0 hPa South 11.3 km/h 19.3 km/h 97 % 0.5 mm 0 W/m2
23:05 7.7 °C 7.2 °C 1006.0 hPa SSE 9.7 km/h 17.7 km/h 97 % 0.5 mm 0 W/m2
23:10 7.8 °C 7.4 °C 1005.6 hPa South 14.5 km/h 29.0 km/h 97 % 0.5 mm 0 W/m2
23:15 7.9 °C 7.5 °C 1005.3 hPa South 6.4 km/h 29.0 km/h 97 % 0.8 mm 0 W/m2
23:20 7.9 °C 7.5 °C 1005.3 hPa South 9.7 km/h 20.9 km/h 97 % 0.8 mm 0 W/m2
23:25 7.9 °C 7.5 °C 1005.0 hPa SSE 4.8 km/h 20.9 km/h 97 % 0.8 mm 0 W/m2
23:30 7.9 °C 7.5 °C 1005.0 hPa SSE 11.3 km/h 20.9 km/h 97 % 1.0 mm 0 W/m2
23:35 8.1 °C 7.6 °C 1004.6 hPa SSE 16.1 km/h 20.9 km/h 97 % 1.0 mm 0 W/m2
23:40 8.1 °C 7.7 °C 1004.3 hPa SSE 17.7 km/h 19.3 km/h 97 % 1.0 mm 0 W/m2
23:45 8.3 °C 7.8 °C 1003.9 hPa South 16.1 km/h 29.0 km/h 97 % 1.0 mm 0 W/m2
Avec l'autorisation de Weather Underground - 1.5 mb